Time;durP1;ratioP1;P1;durP2;ratioP2;P2;SDS_P1;SDS_P2;PMS_P1;PMS_P2;Temp;Humidity;BMP_temperature;BMP_pressure;BME280_temperature;BME280_humidity;BME280_pressure;Samples;Min_cycle;Max_cycle;Signal;HPM_P1;HPM_P2
2023/04/24 00:00:31;;;;;;;2.33;2.13;;;;;;;9.81;100.00;99926.72;5000665;28;20377;-75
2023/04/24 00:02:57;;;;;;;3.25;2.13;;;;;;;9.81;100.00;99929.31;4983251;28;20402;-75
2023/04/24 00:05:23;;;;;;;3.00;2.40;;;;;;;9.83;100.00;99926.63;4981370;28;20041;-75
2023/04/24 00:07:52;;;;;;;2.95;2.40;;;;;;;9.82;100.00;99924.94;4980820;28;20094;-75
2023/04/24 00:10:17;;;;;;;6.13;2.05;;;;;;;9.81;100.00;99931.94;4984025;28;20042;-75
2023/04/24 00:12:43;;;;;;;2.40;2.20;;;;;;;9.79;100.00;99932.00;4999843;28;20297;-75
2023/04/24 00:15:09;;;;;;;2.65;2.10;;;;;;;9.77;100.00;99933.88;5000129;28;20343;-75
2023/04/24 00:17:34;;;;;;;2.17;2.00;;;;;;;9.75;100.00;99930.50;4999749;28;20062;-75
2023/04/24 00:20:00;;;;;;;3.25;2.03;;;;;;;9.73;100.00;99931.47;4999911;28;20308;-75
2023/04/24 00:22:26;;;;;;;2.85;2.38;;;;;;;9.72;100.00;99935.03;4982760;28;20301;-75
2023/04/24 00:24:51;;;;;;;3.30;2.33;;;;;;;9.71;100.00;99930.72;4980776;28;20049;-75
2023/04/24 00:27:16;;;;;;;5.60;2.40;;;;;;;9.70;100.00;99936.88;4981164;28;20045;-75
2023/04/24 00:29:42;;;;;;;2.42;2.22;;;;;;;9.69;100.00;99930.78;4973390;28;20357;-75
2023/04/24 00:32:07;;;;;;;4.10;3.03;;;;;;;9.69;100.00;99932.56;4994573;28;20035;-75
2023/04/24 00:34:33;;;;;;;1.90;1.80;;;;;;;9.70;100.00;99937.72;4980607;28;20417;-75
2023/04/24 00:36:58;;;;;;;2.38;2.17;;;;;;;9.71;100.00;99934.16;4988474;28;20034;-75
2023/04/24 00:39:24;;;;;;;2.15;1.95;;;;;;;9.72;100.00;99932.41;4980351;28;20045;-75
2023/04/24 00:41:50;;;;;;;2.90;2.22;;;;;;;9.70;100.00;99937.72;4980713;28;20042;-75
2023/04/24 00:44:16;;;;;;;2.33;2.13;;;;;;;9.71;100.00;99930.72;4981200;28;20041;-75
2023/04/24 00:46:42;;;;;;;2.00;1.90;;;;;;;9.71;100.00;99931.53;4980136;28;20047;-75
2023/04/24 00:49:08;;;;;;;2.30;2.10;;;;;;;9.71;100.00;99928.09;4999002;28;20038;-75
2023/04/24 00:51:34;;;;;;;1.67;1.58;;;;;;;9.69;100.00;99933.41;4998975;28;20266;-75
2023/04/24 00:54:01;;;;;;;3.20;1.70;;;;;;;9.69;100.00;99929.94;4999771;28;20034;-75
2023/04/24 00:56:27;;;;;;;1.80;1.70;;;;;;;9.68;100.00;99931.72;4996043;28;20037;-75
2023/04/24 00:58:53;;;;;;;2.10;1.83;;;;;;;9.68;100.00;99934.34;4980265;28;20038;-75
2023/04/24 01:01:22;;;;;;;2.13;1.88;;;;;;;9.69;100.00;99938.63;4984178;28;20030;-75
2023/04/24 01:03:50;;;;;;;2.05;1.95;;;;;;;9.70;100.00;99944.72;4979542;28;20035;-76
2023/04/24 01:06:16;;;;;;;1.85;1.75;;;;;;;9.68;100.00;99938.69;4980070;28;20042;-75
2023/04/24 01:08:42;;;;;;;3.58;1.83;;;;;;;9.68;100.00;99930.88;4979674;28;20061;-75
2023/04/24 01:11:08;;;;;;;2.78;2.58;;;;;;;9.67;100.00;99932.63;4980377;28;20061;-75
2023/04/24 01:13:34;;;;;;;1.98;1.88;;;;;;;9.67;100.00;99921.34;4980097;28;20026;-75
2023/04/24 01:16:00;;;;;;;3.38;3.08;;;;;;;9.66;100.00;99932.72;4979292;28;20286;-75
2023/04/24 01:18:27;;;;;;;2.60;2.40;;;;;;;9.66;100.00;99930.97;4980316;28;20042;-75
2023/04/24 01:20:56;;;;;;;3.30;3.00;;;;;;;9.66;100.00;99925.75;4979862;28;20038;-75
2023/04/24 01:23:22;;;;;;;2.72;2.50;;;;;;;9.68;100.00;99936.09;4980070;28;20358;-75
2023/04/24 01:25:49;;;;;;;3.20;3.00;;;;;;;9.67;100.00;99930.03;4980131;28;20046;-75
2023/04/24 01:28:15;;;;;;;3.22;3.03;;;;;;;9.66;100.00;99930.09;4980064;28;20034;-75
2023/04/24 01:30:41;;;;;;;2.70;2.50;;;;;;;9.64;100.00;99932.81;4980094;28;20042;-75
2023/04/24 01:33:07;;;;;;;2.60;2.40;;;;;;;9.65;100.00;99937.09;4979720;28;20090;-75
2023/04/24 01:35:32;;;;;;;1.80;1.70;;;;;;;9.65;100.00;99934.50;4985694;28;20073;-75
2023/04/24 01:37:58;;;;;;;1.50;1.40;;;;;;;9.66;100.00;99938.81;4998391;28;20053;-75
2023/04/24 01:40:23;;;;;;;0.80;0.68;;;;;;;9.65;100.00;99928.44;4998467;28;20038;-75
2023/04/24 01:42:49;;;;;;;0.60;0.60;;;;;;;9.66;100.00;99937.94;4998587;28;20045;-75
2023/04/24 01:45:14;;;;;;;1.42;0.50;;;;;;;9.65;100.00;99928.44;4998432;28;20030;-75
2023/04/24 01:47:40;;;;;;;0.40;0.40;;;;;;;9.64;100.00;99927.59;4997879;28;20042;-75
2023/04/24 01:50:06;;;;;;;0.30;0.30;;;;;;;9.63;100.00;99931.13;4997072;28;20225;-75
2023/04/24 01:52:33;;;;;;;0.55;0.40;;;;;;;9.64;100.00;99931.94;4979463;28;20041;-75
2023/04/24 01:55:04;;;;;;;1.60;0.40;;;;;;;9.63;100.00;99927.66;4979561;28;20089;-75
2023/04/24 01:57:30;;;;;;;0.47;0.30;;;;;;;9.60;100.00;99928.66;4989866;28;20031;-75
2023/04/24 01:59:56;;;;;;;1.15;0.38;;;;;;;9.56;100.00;99927.13;4998073;28;20449;-75
2023/04/24 02:02:27;;;;;;;0.30;0.30;;;;;;;9.54;100.00;99927.19;4990259;28;20045;-75
2023/04/24 02:04:54;;;;;;;2.58;0.40;;;;;;;9.52;100.00;99930.81;4987212;28;20046;-74
2023/04/24 02:07:19;;;;;;;0.52;0.40;;;;;;;9.51;100.00;99927.34;4980905;28;20111;-74
2023/04/24 02:09:44;;;;;;;0.30;0.30;;;;;;;9.51;100.00;99924.72;4980707;28;20034;-74
2023/04/24 02:12:10;;;;;;;0.40;0.40;;;;;;;9.50;100.00;99917.81;4993574;28;20357;-74
2023/04/24 02:14:35;;;;;;;0.40;0.40;;;;;;;9.51;100.00;99926.50;4999756;28;20038;-74
2023/04/24 02:17:00;;;;;;;0.93;0.40;;;;;;;9.48;100.00;99918.81;4999875;28;20093;-74
2023/04/24 02:19:26;;;;;;;0.63;0.52;;;;;;;9.48;100.00;99921.41;5000335;28;20317;-74
2023/04/24 02:21:52;;;;;;;0.98;0.50;;;;;;;9.47;100.00;99917.97;5000099;28;20754;-74
2023/04/24 02:24:17;;;;;;;0.52;0.52;;;;;;;9.48;100.00;99921.41;5000364;28;20042;-75
2023/04/24 02:26:42;;;;;;;0.50;0.50;;;;;;;9.46;100.00;99924.13;4997859;28;20373;-75
2023/04/24 02:29:08;;;;;;;0.88;0.60;;;;;;;9.47;100.00;99917.13;4996369;28;20105;-75
2023/04/24 02:31:33;;;;;;;3.90;0.50;;;;;;;9.49;100.00;99925.75;4997304;28;20150;-75
2023/04/24 02:33:59;;;;;;;0.95;0.90;;;;;;;9.50;100.00;99925.66;4998190;28;20064;-75
2023/04/24 02:36:24;;;;;;;1.70;1.17;;;;;;;9.51;100.00;99934.34;4987287;28;20037;-75
2023/04/24 02:38:50;;;;;;;1.25;1.15;;;;;;;9.46;100.00;99931.13;4978781;28;20031;-75
2023/04/24 02:41:15;;;;;;;0.98;0.90;;;;;;;9.46;100.00;99931.97;4993906;28;20262;-75
2023/04/24 02:43:41;;;;;;;1.60;1.10;;;;;;;9.46;100.00;99929.38;4997474;28;20038;-75
2023/04/24 02:46:06;;;;;;;2.67;1.40;;;;;;;9.45;100.00;99932.06;4997983;28;20337;-75
2023/04/24 02:48:31;;;;;;;0.90;0.90;;;;;;;9.46;100.00;99925.88;4997518;28;20038;-75
2023/04/24 02:50:57;;;;;;;2.28;0.80;;;;;;;9.44;100.00;99931.22;4995944;28;20490;-75
2023/04/24 02:53:23;;;;;;;1.20;0.60;;;;;;;9.45;100.00;99934.66;4997377;28;20057;-75
2023/04/24 02:55:48;;;;;;;0.88;0.60;;;;;;;9.44;100.00;99927.72;4997013;28;20103;-75
2023/04/24 02:58:14;;;;;;;0.60;0.60;;;;;;;9.43;100.00;99939.13;4996634;28;20043;-75
2023/04/24 03:00:39;;;;;;;0.60;0.60;;;;;;;9.42;100.00;99943.50;4996335;28;20052;-75
2023/04/24 03:03:05;;;;;;;0.75;0.57;;;;;;;9.40;100.00;99937.50;4978710;28;20058;-75
2023/04/24 03:05:31;;;;;;;1.00;0.40;;;;;;;9.41;100.00;99940.03;4978778;28;20337;-75
2023/04/24 03:07:56;;;;;;;0.40;0.40;;;;;;;9.44;100.00;99938.19;4976813;28;20241;-75
2023/04/24 03:10:24;;;;;;;0.30;0.30;;;;;;;9.44;100.00;99939.06;4978162;28;20043;-75
2023/04/24 03:12:50;;;;;;;1.15;0.40;;;;;;;9.45;100.00;99937.28;4978508;28;20089;-75
2023/04/24 03:15:15;;;;;;;0.63;0.35;;;;;;;9.47;99.82;99944.09;4997569;28;20113;-75
2023/04/24 03:17:41;;;;;;;0.30;0.30;;;;;;;9.46;99.67;99945.06;4995734;28;20115;-75
2023/04/24 03:20:08;;;;;;;0.90;0.40;;;;;;;9.47;99.51;99940.66;4996883;28;20042;-75
2023/04/24 03:22:34;;;;;;;0.25;0.25;;;;;;;9.48;99.27;99942.34;4996624;28;20089;-75
2023/04/24 03:25:00;;;;;;;0.85;0.35;;;;;;;9.48;99.19;99939.72;4997605;28;20034;-75
2023/04/24 03:27:25;;;;;;;1.95;0.45;;;;;;;9.45;99.14;99942.50;4997130;28;20065;-75
2023/04/24 03:29:57;;;;;;;1.75;0.57;;;;;;;9.44;99.17;99944.28;5000841;28;20353;-75
2023/04/24 03:32:22;;;;;;;0.50;0.45;;;;;;;9.43;99.41;99936.50;4991902;28;20053;-75
2023/04/24 03:34:51;;;;;;;0.82;0.45;;;;;;;9.44;99.50;99931.22;4984372;28;20054;-75
2023/04/24 03:37:16;;;;;;;0.68;0.50;;;;;;;9.44;99.26;99928.59;5001386;28;20324;-75
2023/04/24 03:39:43;;;;;;;0.63;0.50;;;;;;;9.44;99.58;99919.91;5000111;28;20034;-75
2023/04/24 03:42:08;;;;;;;0.40;0.40;;;;;;;9.45;99.51;99922.44;4999664;28;20038;-75
2023/04/24 03:44:34;;;;;;;0.70;0.50;;;;;;;9.43;99.03;99926.91;5000122;28;20399;-75
2023/04/24 03:47:00;;;;;;;1.08;0.65;;;;;;;9.41;99.00;99934.81;5000775;28;20041;-75
2023/04/24 03:49:25;;;;;;;0.85;0.55;;;;;;;9.41;99.39;99928.75;5000667;28;20246;-75
2023/04/24 03:51:52;;;;;;;0.82;0.38;;;;;;;9.42;99.44;99933.03;5000352;28;20058;-75
2023/04/24 03:54:17;;;;;;;0.30;0.30;;;;;;;9.42;99.61;99940.88;5001023;28;20054;-75
2023/04/24 03:56:43;;;;;;;1.35;0.50;;;;;;;9.43;99.34;99944.34;5000667;28;20215;-75
2023/04/24 03:59:08;;;;;;;0.32;0.32;;;;;;;9.44;99.22;99943.41;5000646;28;20043;-75
2023/04/24 04:01:36;;;;;;;0.43;0.40;;;;;;;9.43;99.30;99944.34;4999741;28;20054;-75
2023/04/24 04:04:02;;;;;;;0.40;0.40;;;;;;;9.42;99.67;99948.72;4983606;28;20043;-75
2023/04/24 04:06:28;;;;;;;0.68;0.50;;;;;;;9.42;99.48;99959.16;4981438;28;20038;-75
2023/04/24 04:08:53;;;;;;;0.30;0.30;;;;;;;9.43;99.30;99960.88;4981534;28;20338;-75
2023/04/24 04:11:19;;;;;;;0.30;0.30;;;;;;;9.43;99.30;99968.72;4981229;28;20058;-75
2023/04/24 04:13:47;;;;;;;0.40;0.40;;;;;;;9.43;98.87;99958.25;4981183;28;20042;-75
2023/04/24 04:16:13;;;;;;;0.93;0.32;;;;;;;9.44;98.64;99966.94;4980479;28;20038;-75
2023/04/24 04:18:38;;;;;;;0.63;0.47;;;;;;;9.43;98.83;99965.25;4980910;28;20043;-75
2023/04/24 04:21:03;;;;;;;1.63;0.52;;;;;;;9.42;99.13;99967.00;4981336;28;20041;-75
2023/04/24 04:23:29;;;;;;;1.33;0.68;;;;;;;9.40;98.83;99971.47;4980947;28;20350;-75
2023/04/24 04:25:55;;;;;;;0.70;0.57;;;;;;;9.37;99.51;99975.09;4981020;28;20373;-75
2023/04/24 04:28:21;;;;;;;1.15;0.50;;;;;;;9.34;100.00;99984.84;4981427;28;20369;-75
2023/04/24 04:30:47;;;;;;;3.00;0.70;;;;;;;9.29;100.00;99999.91;4981092;28;20054;-75
2023/04/24 04:33:12;;;;;;;1.55;0.70;;;;;;;9.25;100.00;99990.53;4994583;28;20034;-75
2023/04/24 04:35:38;;;;;;;3.40;1.17;;;;;;;9.18;100.00;99997.81;4987168;28;20388;-75
2023/04/24 04:38:04;;;;;;;2.33;1.42;;;;;;;9.16;100.00;100010.94;4996544;28;20047;-75
2023/04/24 04:40:30;;;;;;;2.42;1.67;;;;;;;9.14;100.00;100012.78;4978850;28;20114;-75
2023/04/24 04:42:55;;;;;;;7.55;2.05;;;;;;;9.04;100.00;100029.81;4979097;28;20070;-75
2023/04/24 04:45:21;;;;;;;2.47;2.10;;;;;;;8.99;100.00;100030.03;4980953;28;20038;-75
2023/04/24 04:47:47;;;;;;;4.20;1.80;;;;;;;8.92;100.00;100038.22;4980664;28;20054;-75
2023/04/24 04:50:13;;;;;;;6.57;2.08;;;;;;;8.86;100.00;100055.03;4998982;28;20104;-75
2023/04/24 04:52:38;;;;;;;7.65;2.20;;;;;;;8.82;100.00;100056.94;4998717;28;20073;-75
2023/04/24 04:55:05;;;;;;;8.48;2.15;;;;;;;8.79;100.00;100064.91;4999324;28;20034;-75
2023/04/24 04:57:30;;;;;;;6.93;2.40;;;;;;;8.75;100.00;100068.56;4996549;28;20030;-75
2023/04/24 04:59:55;;;;;;;6.05;2.97;;;;;;;8.72;100.00;100071.31;4998711;28;20073;-75
2023/04/24 05:02:21;;;;;;;5.95;3.92;;;;;;;8.70;100.00;100078.38;4998684;28;20261;-75
2023/04/24 05:04:46;;;;;;;13.95;5.60;;;;;;;8.67;100.00;100096.78;4999638;28;20042;-75
2023/04/24 05:07:11;;;;;;;12.88;6.40;;;;;;;8.63;100.00;100098.66;4998764;28;20062;-75
2023/04/24 05:09:37;;;;;;;14.07;7.18;;;;;;;8.60;100.00;100098.81;4980103;28;20226;-75
2023/04/24 05:12:03;;;;;;;15.65;6.82;;;;;;;8.59;100.00;100093.66;4980286;28;20105;-76
2023/04/24 05:14:28;;;;;;;12.50;7.47;;;;;;;8.59;100.00;100140.66;4978721;28;20026;-75
2023/04/24 05:16:54;;;;;;;17.20;8.15;;;;;;;8.48;100.00;100133.28;4979989;28;20023;-75
2023/04/24 05:19:19;;;;;;;13.65;7.65;;;;;;;8.49;100.00;100128.91;4979663;28;20062;-75
2023/04/24 05:21:45;;;;;;;8.85;6.13;;;;;;;8.47;100.00;100133.34;4991087;28;20126;-75
2023/04/24 05:24:10;;;;;;;14.13;6.82;;;;;;;8.42;100.00;100155.28;4994649;28;20034;-75
2023/04/24 05:26:36;;;;;;;8.75;7.00;;;;;;;8.40;100.00;100164.91;4989612;28;20050;-75
2023/04/24 05:29:02;;;;;;;10.48;6.18;;;;;;;8.40;100.00;100158.81;4991696;28;20049;-75
2023/04/24 05:31:28;;;;;;;17.42;7.25;;;;;;;8.36;100.00;100175.53;4990412;28;20042;-76
2023/04/24 05:33:53;;;;;;;11.60;7.20;;;;;;;8.32;100.00;100181.78;4989428;28;20302;-75
2023/04/24 05:36:18;;;;;;;16.35;7.68;;;;;;;8.31;100.00;100187.91;4989494;28;20406;-75
2023/04/24 05:38:44;;;;;;;14.18;7.57;;;;;;;8.28;100.00;100196.72;4989431;28;20046;-75
2023/04/24 05:41:09;;;;;;;19.35;8.38;;;;;;;8.28;100.00;100209.75;4988745;28;20038;-75
2023/04/24 05:43:35;;;;;;;18.10;7.57;;;;;;;8.25;100.00;100202.88;4968715;28;20237;-75
2023/04/24 05:46:00;;;;;;;16.55;7.38;;;;;;;8.27;100.00;100219.31;4987063;28;20100;-75
2023/04/24 05:48:25;;;;;;;19.00;7.75;;;;;;;8.27;100.00;100221.94;4989427;28;20034;-75
2023/04/24 05:50:52;;;;;;;11.50;7.38;;;;;;;8.27;100.00;100224.53;4989491;28;20105;-75
2023/04/24 05:53:18;;;;;;;17.77;8.40;;;;;;;8.30;100.00;100230.56;4973873;28;20058;-75
2023/04/24 05:55:43;;;;;;;10.30;7.10;;;;;;;8.30;100.00;100241.00;4993005;28;20042;-76
2023/04/24 05:58:09;;;;;;;22.42;8.20;;;;;;;8.31;100.00;100240.91;4990707;28;20386;-75
2023/04/24 06:00:35;;;;;;;17.55;6.93;;;;;;;8.33;100.00;100249.56;4977936;28;20058;-75
2023/04/24 06:03:00;;;;;;;15.55;6.60;;;;;;;8.34;100.00;100255.63;4997769;28;20101;-75
2023/04/24 06:05:26;;;;;;;13.38;6.68;;;;;;;8.30;100.00;100261.88;4998543;28;20333;-75
2023/04/24 06:07:52;;;;;;;13.27;6.85;;;;;;;8.28;100.00;100267.16;4997140;28;20649;-75
2023/04/24 06:10:17;;;;;;;17.35;5.97;;;;;;;8.28;100.00;100280.19;4997037;28;20042;-75
2023/04/24 06:12:43;;;;;;;14.88;5.88;;;;;;;8.25;100.00;100288.13;4996640;28;20079;-75
2023/04/24 06:15:09;;;;;;;19.02;6.00;;;;;;;8.25;100.00;100298.56;4996308;28;20042;-75
2023/04/24 06:17:34;;;;;;;16.33;5.40;;;;;;;8.22;100.00;100303.91;4986828;28;20042;-75
2023/04/24 06:19:59;;;;;;;22.40;5.97;;;;;;;8.21;100.00;100308.28;4988466;28;20037;-75
2023/04/24 06:22:25;;;;;;;17.77;5.35;;;;;;;8.21;100.00;100317.88;4986759;28;20234;-75
2023/04/24 06:24:50;;;;;;;14.43;4.72;;;;;;;8.20;100.00;100321.38;4980499;28;20038;-75
2023/04/24 06:27:15;;;;;;;18.33;4.53;;;;;;;8.17;100.00;100322.34;4978004;28;20066;-76
2023/04/24 06:29:41;;;;;;;17.23;4.53;;;;;;;8.19;100.00;100330.97;4961146;28;20039;-75
2023/04/24 06:32:07;;;;;;;16.13;4.32;;;;;;;8.21;100.00;100331.75;4991467;28;20061;-75
2023/04/24 06:34:33;;;;;;;14.65;4.43;;;;;;;8.24;100.00;100338.59;4996313;28;20050;-75
2023/04/24 06:37:00;;;;;;;13.23;4.35;;;;;;;8.26;100.00;100337.66;4997256;28;20061;-75
2023/04/24 06:39:25;;;;;;;13.02;4.03;;;;;;;8.24;100.00;100347.31;4981129;28;20232;-75
2023/04/24 06:41:50;;;;;;;16.55;4.22;;;;;;;8.23;100.00;100353.41;4978472;28;20098;-75
2023/04/24 06:44:16;;;;;;;17.38;4.10;;;;;;;8.24;100.00;100381.22;4961318;28;20062;-76
2023/04/24 06:46:42;;;;;;;11.38;3.58;;;;;;;8.19;100.00;100367.50;4978141;28;20050;-75
2023/04/24 06:49:07;;;;;;;16.88;3.80;;;;;;;8.18;100.00;100371.00;4978835;28;20034;-75
2023/04/24 06:51:32;;;;;;;19.77;4.15;;;;;;;8.20;100.00;100369.16;4978296;28;20045;-75
2023/04/24 06:53:58;;;;;;;20.25;4.55;;;;;;;8.21;100.00;100383.09;4991478;28;20325;-75
2023/04/24 06:56:25;;;;;;;17.85;4.10;;;;;;;8.19;100.00;100388.34;4997952;28;20062;-74
2023/04/24 06:58:51;;;;;;;20.98;4.03;;;;;;;8.25;100.00;100389.88;4997209;28;20079;-75
2023/04/24 07:01:16;;;;;;;19.52;3.40;;;;;;;8.23;100.00;100400.38;4998011;28;20273;-74
2023/04/24 07:03:42;;;;;;;15.55;3.17;;;;;;;8.21;100.00;100409.16;5000398;28;20206;-75
2023/04/24 07:06:07;;;;;;;15.75;4.03;;;;;;;8.21;100.00;100410.00;4983283;28;20049;-75
2023/04/24 07:08:33;;;;;;;21.40;3.42;;;;;;;8.22;100.00;100413.47;4981676;28;20073;-75
2023/04/24 07:10:59;;;;;;;16.60;5.15;;;;;;;8.24;100.00;100427.31;4988042;28;20214;-75
2023/04/24 07:13:25;;;;;;;15.70;3.53;;;;;;;8.21;100.00;100425.66;5000887;28;20109;-74
2023/04/24 07:15:52;;;;;;;11.93;3.00;;;;;;;8.15;99.87;100440.69;5000914;28;20381;-74
2023/04/24 07:18:18;;;;;;;14.52;2.80;;;;;;;8.14;99.57;100437.25;5000613;28;20050;-75
2023/04/24 07:20:44;;;;;;;22.40;3.15;;;;;;;8.14;99.65;100442.44;5000106;28;20104;-75
2023/04/24 07:23:09;;;;;;;10.32;2.95;;;;;;;8.15;100.00;100443.28;4998951;28;20034;-75
2023/04/24 07:25:35;;;;;;;15.02;3.10;;;;;;;8.13;100.00;100453.81;4999220;28;20062;-75
2023/04/24 07:28:00;;;;;;;11.60;3.17;;;;;;;8.12;99.27;100465.13;4999872;28;20046;-75
2023/04/24 07:30:26;;;;;;;6.05;2.67;;;;;;;8.13;98.36;100463.38;4992148;28;20038;-75
2023/04/24 07:32:51;;;;;;;16.20;2.60;;;;;;;8.10;97.41;100471.31;4999063;28;20038;-75
2023/04/24 07:35:17;;;;;;;11.77;2.70;;;;;;;8.12;97.86;100474.72;4999170;28;20062;-75
2023/04/24 07:37:45;;;;;;;11.70;3.00;;;;;;;8.14;97.73;100480.75;4999066;28;20126;-75
2023/04/24 07:40:12;;;;;;;13.77;2.80;;;;;;;8.14;97.53;100481.56;4999839;28;20249;-75
2023/04/24 07:42:38;;;;;;;10.80;2.75;;;;;;;8.15;96.93;100482.41;5000840;28;20041;-75
2023/04/24 07:45:04;;;;;;;12.45;2.30;;;;;;;8.15;96.82;100487.63;5001986;28;20046;-75
2023/04/24 07:47:29;;;;;;;15.13;2.65;;;;;;;8.11;96.11;100494.72;4986436;28;20050;-75
2023/04/24 07:49:55;;;;;;;17.35;2.75;;;;;;;8.14;96.14;100510.28;4981130;28;20046;-75
2023/04/24 07:52:20;;;;;;;19.17;2.60;;;;;;;8.11;95.78;100515.59;4981602;28;20038;-74
2023/04/24 07:54:46;;;;;;;12.40;2.40;;;;;;;8.14;95.66;100502.44;4979902;28;20278;-75
2023/04/24 07:57:11;;;;;;;12.02;2.10;;;;;;;8.12;94.72;100511.25;4979257;28;20231;-75
2023/04/24 07:59:36;;;;;;;8.23;2.20;;;;;;;8.14;94.50;100509.44;4980579;28;20054;-75
2023/04/24 08:02:02;;;;;;;10.75;2.33;;;;;;;8.13;92.62;100512.94;4991612;28;20042;-75
2023/04/24 08:04:27;;;;;;;12.68;2.22;;;;;;;8.13;93.02;100550.31;4995231;28;20101;-75
2023/04/24 08:06:53;;;;;;;11.15;2.25;;;;;;;8.06;91.44;100534.03;4991753;28;20054;-75
2023/04/24 08:09:18;;;;;;;8.82;2.10;;;;;;;8.06;91.20;100530.56;5000225;28;20073;-75
2023/04/24 08:11:44;;;;;;;5.90;2.42;;;;;;;8.04;91.03;100543.66;4998757;28;20034;-75
2023/04/24 08:14:09;;;;;;;11.30;2.35;;;;;;;8.02;91.17;100548.09;4998792;28;20380;-75
2023/04/24 08:16:35;;;;;;;11.73;2.05;;;;;;;8.03;91.55;100554.16;4991483;28;20080;-75
2023/04/24 08:19:00;;;;;;;11.43;2.60;;;;;;;8.01;92.14;100546.38;4999120;28;20030;-75
2023/04/24 08:21:26;;;;;;;11.20;3.20;;;;;;;8.02;92.26;100548.09;4999523;28;20046;-75
2023/04/24 08:23:52;;;;;;;11.32;2.00;;;;;;;8.04;92.63;100561.91;4997115;28;20073;-75
2023/04/24 08:26:18;;;;;;;7.22;2.00;;;;;;;8.02;89.92;100558.50;4998572;28;20364;-75
2023/04/24 08:28:43;;;;;;;10.07;2.67;;;;;;;8.05;90.06;100565.38;4996920;28;20225;-75
2023/04/24 08:31:09;;;;;;;14.27;2.63;;;;;;;8.05;89.73;100576.66;4986959;28;20157;-75
2023/04/24 08:33:34;;;;;;;5.97;1.70;;;;;;;8.05;89.02;100584.47;4992853;28;20046;-75
2023/04/24 08:36:02;;;;;;;6.20;1.95;;;;;;;8.09;89.43;100580.00;4998115;28;20062;-75
2023/04/24 08:38:27;;;;;;;6.40;1.92;;;;;;;8.13;89.59;100589.44;4999513;28;20199;-76
2023/04/24 08:40:53;;;;;;;7.70;1.60;;;;;;;8.13;89.27;100599.00;4999453;28;20045;-75
2023/04/24 08:43:21;;;;;;;6.03;1.88;;;;;;;8.06;87.83;100607.06;4999495;28;20042;-76
2023/04/24 08:45:47;;;;;;;9.68;2.25;;;;;;;8.06;88.46;100614.88;4997121;28;20042;-75
2023/04/24 08:48:13;;;;;;;7.88;1.52;;;;;;;7.99;87.06;100615.97;4995860;28;20089;-75
2023/04/24 08:50:42;;;;;;;4.72;1.40;;;;;;;8.01;87.61;100615.94;4999264;28;20370;-75
2023/04/24 08:53:08;;;;;;;4.97;1.67;;;;;;;7.99;86.84;100615.13;4999538;28;20038;-75
2023/04/24 08:55:34;;;;;;;4.57;1.45;;;;;;;8.02;87.16;100617.63;4999491;28;20037;-75
2023/04/24 08:58:00;;;;;;;3.38;0.95;;;;;;;8.02;86.92;100617.63;4999273;28;20388;-75
2023/04/24 09:00:26;;;;;;;4.78;1.10;;;;;;;8.01;86.80;100619.38;4998367;28;20345;-76
2023/04/24 09:02:55;;;;;;;3.42;1.20;;;;;;;7.99;86.06;100622.97;4998969;28;20044;-75
2023/04/24 09:05:21;;;;;;;5.65;1.33;;;;;;;8.00;87.23;100620.28;4996255;28;20033;-75
2023/04/24 09:07:55;;;;;;;8.10;1.15;;;;;;;7.97;87.77;100620.41;4993310;28;20114;-76
2023/04/24 09:10:23;;;;;;;8.40;1.40;;;;;;;7.95;89.12;100630.03;4992006;28;20034;-75
2023/04/24 09:12:51;;;;;;;5.50;1.48;;;;;;;7.93;89.34;100644.88;4983476;28;20225;-75
2023/04/24 09:15:18;;;;;;;5.32;1.13;;;;;;;7.88;89.64;100634.59;4999326;28;20034;-75
2023/04/24 09:17:43;;;;;;;4.55;1.23;;;;;;;7.90;89.67;100639.75;4998038;28;20034;-75
2023/04/24 09:20:09;;;;;;;5.70;1.17;;;;;;;7.92;90.09;100632.75;4999182;28;20053;-76
2023/04/24 09:22:34;;;;;;;7.43;0.77;;;;;;;7.94;89.93;100643.97;4998871;28;20230;-75
2023/04/24 09:25:05;;;;;;;8.65;1.35;;;;;;;7.97;88.95;100635.22;4997585;28;20211;-76
2023/04/24 09:27:31;;;;;;;9.60;0.93;;;;;;;8.00;89.68;100651.56;4998499;28;20108;-75
2023/04/24 09:29:57;;;;;;;2.70;0.77;;;;;;;8.01;88.64;100653.28;4998439;28;20217;-75
2023/04/24 09:32:25;;;;;;;3.30;1.05;;;;;;;8.06;88.44;100653.16;4998845;28;20042;-75
2023/04/24 09:35:09;;;;;;;4.10;1.25;;;;;;;8.12;89.30;100652.94;4998386;28;20080;-76
2023/04/24 09:37:38;;;;;;;4.68;0.98;;;;;;;8.14;87.62;100653.72;4998056;28;20042;-75
2023/04/24 09:40:22;;;;;;;5.38;0.60;;;;;;;8.17;87.45;100651.03;4998216;28;20105;-75
2023/04/24 09:43:00;;;;;;;7.55;1.30;;;;;;;8.24;88.67;100662.09;4998637;28;20030;-76
2023/04/24 09:45:36;;;;;;;3.22;1.05;;;;;;;8.29;88.59;100675.00;4979346;28;20050;-75
2023/04/24 09:48:11;;;;;;;8.32;1.00;;;;;;;8.26;87.80;100682.03;5115193;27;20603;-77
2023/04/24 09:50:36;;;;;;;4.05;0.80;;;;;;;8.29;87.59;100683.66;5113703;28;20032;-76
2023/04/24 09:53:03;;;;;;;5.20;1.10;;;;;;;8.27;87.77;100681.09;5095604;28;20020;-76
2023/04/24 09:55:29;;;;;;;2.75;0.68;;;;;;;8.31;88.10;100691.44;5094820;28;20040;-76
2023/04/24 09:57:57;;;;;;;1.25;0.50;;;;;;;8.34;88.55;100692.19;5094643;28;20040;-76
2023/04/24 10:00:25;;;;;;;4.40;1.00;;;;;;;8.37;88.62;100699.94;5074343;28;20033;-76
2023/04/24 10:02:58;;;;;;;4.70;0.90;;;;;;;8.34;87.47;100700.03;5090119;28;20058;-76
2023/04/24 10:05:26;;;;;;;3.80;0.60;;;;;;;8.34;87.23;100714.84;5090716;28;20370;-75
2023/04/24 10:07:56;;;;;;;7.17;1.70;;;;;;;8.32;87.14;100709.66;5098836;28;20031;-76
2023/04/24 10:10:22;;;;;;;5.72;0.95;;;;;;;8.27;85.56;100719.41;5115302;28;20542;-76
2023/04/24 10:12:48;;;;;;;3.63;0.68;;;;;;;8.25;85.15;100729.88;5109944;28;20032;-76
2023/04/24 10:15:16;;;;;;;7.32;1.95;;;;;;;8.29;85.72;100717.59;5111418;28;20077;-77
2023/04/24 10:17:43;;;;;;;4.90;1.27;;;;;;;8.31;85.67;100721.00;5111608;28;20231;-76
2023/04/24 10:20:10;;;;;;;7.13;0.80;;;;;;;8.31;85.99;100731.44;5111698;28;20032;-76
2023/04/24 10:22:36;;;;;;;3.22;1.00;;;;;;;8.34;86.54;100727.88;5099850;28;20048;-77
2023/04/24 10:25:04;;;;;;;7.30;1.20;;;;;;;8.33;87.77;100720.94;5106402;28;20360;-76
2023/04/24 10:27:31;;;;;;;4.53;1.08;;;;;;;8.32;88.16;100734.91;5094003;28;20032;-76
2023/04/24 10:29:58;;;;;;;4.47;0.98;;;;;;;8.26;88.48;100721.16;5105760;28;20047;-76
2023/04/24 10:32:23;;;;;;;4.18;0.95;;;;;;;8.21;88.40;100722.22;5096790;28;20274;-77
2023/04/24 10:34:49;;;;;;;8.30;1.15;;;;;;;8.20;89.17;100723.97;5105173;28;20068;-76
2023/04/24 10:37:15;;;;;;;6.75;1.00;;;;;;;8.21;89.39;100733.50;5101431;28;20099;-76
2023/04/24 10:39:40;;;;;;;8.07;1.17;;;;;;;8.22;89.91;100734.34;5102867;28;20246;-77
2023/04/24 10:42:15;;;;;;;4.05;0.80;;;;;;;8.18;90.09;100733.59;5104292;28;20062;-77
2023/04/24 10:44:41;;;;;;;3.88;1.17;;;;;;;8.21;89.46;100740.47;5093431;28;20044;-77
2023/04/24 10:47:13;;;;;;;4.65;0.93;;;;;;;8.26;89.16;100744.66;5095248;28;20123;-76
2023/04/24 10:49:39;;;;;;;4.00;0.80;;;;;;;8.26;87.33;100755.09;5100899;28;20032;-77
2023/04/24 10:52:05;;;;;;;4.80;0.90;;;;;;;8.33;88.30;100755.75;5079641;28;20040;-77
2023/04/24 10:54:43;;;;;;;3.72;0.93;;;;;;;8.40;88.43;100759.00;5092004;28;20031;-77
2023/04/24 10:57:18;;;;;;;4.47;1.10;;;;;;;8.49;88.82;100753.50;5093434;28;20028;-77
2023/04/24 10:59:44;;;;;;;7.05;1.25;;;;;;;8.53;87.47;100754.25;5084893;28;20047;-76
2023/04/24 11:02:10;;;;;;;8.30;1.42;;;;;;;8.55;88.28;100761.13;5095645;28;20127;-77
2023/04/24 11:04:36;;;;;;;7.65;1.20;;;;;;;8.55;87.55;100775.91;5080247;28;20044;-77
2023/04/24 11:07:03;;;;;;;3.35;0.70;;;;;;;8.49;86.38;100770.91;5083007;28;20040;-76
2023/04/24 11:09:31;;;;;;;3.03;0.70;;;;;;;8.51;86.86;100764.72;5100405;28;20102;-76
2023/04/24 11:12:09;;;;;;;2.17;0.63;;;;;;;8.58;87.49;100770.63;5098181;28;20032;-77
2023/04/24 11:14:56;;;;;;;1.55;0.80;;;;;;;8.64;87.50;100773.88;5091927;28;20064;-77
2023/04/24 11:17:34;;;;;;;2.88;0.70;;;;;;;8.69;87.23;100784.16;5084147;28;20443;-77
2023/04/24 11:20:09;;;;;;;2.75;0.50;;;;;;;8.71;84.85;100792.78;5100734;28;20032;-77
2023/04/24 11:22:35;;;;;;;3.03;0.68;;;;;;;8.77;85.70;100784.75;5091838;28;20040;-77
2023/04/24 11:25:02;;;;;;;5.57;0.75;;;;;;;8.81;84.74;100778.53;5098066;28;20331;-77